sensor_id;sensor_type;location;lat;lon;timestamp;P1;durP1;ratioP1;P2;durP2;ratioP2
2111;SDS011;1062;52.538;13.400;2023-07-22T00:00:42;8.20;;;6.60;;
2111;SDS011;1062;52.538;13.400;2023-07-22T00:03:08;7.90;;;7.20;;
2111;SDS011;1062;52.538;13.400;2023-07-22T00:05:33;8.20;;;7.50;;
2111;SDS011;1062;52.538;13.400;2023-07-22T00:07:59;7.37;;;6.53;;
2111;SDS011;1062;52.538;13.400;2023-07-22T00:10:24;8.97;;;8.10;;
2111;SDS011;1062;52.538;13.400;2023-07-22T00:12:50;6.87;;;6.27;;
2111;SDS011;1062;52.538;13.400;2023-07-22T00:15:16;7.97;;;7.27;;
2111;SDS011;1062;52.538;13.400;2023-07-22T00:17:41;6.67;;;6.10;;
2111;SDS011;1062;52.538;13.400;2023-07-22T00:20:08;5.80;;;5.30;;
2111;SDS011;1062;52.538;13.400;2023-07-22T00:22:36;8.37;;;7.67;;
2111;SDS011;1062;52.538;13.400;2023-07-22T00:25:09;7.27;;;6.67;;
2111;SDS011;1062;52.538;13.400;2023-07-22T00:27:36;8.43;;;7.53;;
2111;SDS011;1062;52.538;13.400;2023-07-22T00:30:03;6.67;;;6.03;;
2111;SDS011;1062;52.538;13.400;2023-07-22T00:32:31;7.90;;;7.20;;
2111;SDS011;1062;52.538;13.400;2023-07-22T00:34:58;9.03;;;6.20;;
2111;SDS011;1062;52.538;13.400;2023-07-22T00:37:23;7.47;;;6.80;;
2111;SDS011;1062;52.538;13.400;2023-07-22T00:39:50;6.60;;;6.00;;
2111;SDS011;1062;52.538;13.400;2023-07-22T00:42:16;7.17;;;6.57;;
2111;SDS011;1062;52.538;13.400;2023-07-22T00:44:41;7.87;;;6.80;;
2111;SDS011;1062;52.538;13.400;2023-07-22T00:47:07;7.60;;;6.80;;
2111;SDS011;1062;52.538;13.400;2023-07-22T00:49:33;7.30;;;6.70;;
2111;SDS011;1062;52.538;13.400;2023-07-22T00:52:01;9.07;;;6.67;;
2111;SDS011;1062;52.538;13.400;2023-07-22T00:54:27;6.97;;;6.37;;
2111;SDS011;1062;52.538;13.400;2023-07-22T00:56:54;7.93;;;7.07;;
2111;SDS011;1062;52.538;13.400;2023-07-22T00:59:22;7.17;;;6.67;;
2111;SDS011;1062;52.538;13.400;2023-07-22T01:01:47;7.07;;;6.47;;
2111;SDS011;1062;52.538;13.400;2023-07-22T01:04:13;9.00;;;7.40;;
2111;SDS011;1062;52.538;13.400;2023-07-22T01:06:41;7.90;;;7.10;;
2111;SDS011;1062;52.538;13.400;2023-07-22T01:09:09;6.90;;;6.20;;
2111;SDS011;1062;52.538;13.400;2023-07-22T01:11:34;7.40;;;6.80;;
2111;SDS011;1062;52.538;13.400;2023-07-22T01:14:00;7.90;;;7.20;;
2111;SDS011;1062;52.538;13.400;2023-07-22T01:16:26;9.13;;;8.37;;
2111;SDS011;1062;52.538;13.400;2023-07-22T01:18:53;8.00;;;7.30;;
2111;SDS011;1062;52.538;13.400;2023-07-22T01:21:21;8.33;;;7.63;;
2111;SDS011;1062;52.538;13.400;2023-07-22T01:23:48;7.73;;;6.93;;
2111;SDS011;1062;52.538;13.400;2023-07-22T01:26:13;8.07;;;7.30;;
2111;SDS011;1062;52.538;13.400;2023-07-22T01:28:39;8.07;;;7.37;;
2111;SDS011;1062;52.538;13.400;2023-07-22T01:31:05;7.60;;;7.00;;
2111;SDS011;1062;52.538;13.400;2023-07-22T01:33:31;7.83;;;7.17;;
2111;SDS011;1062;52.538;13.400;2023-07-22T01:35:57;8.80;;;8.00;;
2111;SDS011;1062;52.538;13.400;2023-07-22T01:38:22;8.87;;;8.03;;
2111;SDS011;1062;52.538;13.400;2023-07-22T01:40:48;9.70;;;8.47;;
2111;SDS011;1062;52.538;13.400;2023-07-22T01:43:14;8.20;;;7.60;;
2111;SDS011;1062;52.538;13.400;2023-07-22T01:45:39;8.13;;;7.33;;
2111;SDS011;1062;52.538;13.400;2023-07-22T01:48:05;8.50;;;7.50;;
2111;SDS011;1062;52.538;13.400;2023-07-22T01:50:31;8.60;;;7.77;;
2111;SDS011;1062;52.538;13.400;2023-07-22T01:52:57;7.00;;;6.40;;
2111;SDS011;1062;52.538;13.400;2023-07-22T01:55:22;8.63;;;7.30;;
2111;SDS011;1062;52.538;13.400;2023-07-22T01:57:48;7.30;;;6.73;;
2111;SDS011;1062;52.538;13.400;2023-07-22T02:00:14;8.40;;;7.60;;
2111;SDS011;1062;52.538;13.400;2023-07-22T02:02:41;8.43;;;7.70;;
2111;SDS011;1062;52.538;13.400;2023-07-22T02:05:08;8.50;;;7.50;;
2111;SDS011;1062;52.538;13.400;2023-07-22T02:07:37;9.30;;;7.77;;
2111;SDS011;1062;52.538;13.400;2023-07-22T02:10:03;10.90;;;8.00;;
2111;SDS011;1062;52.538;13.400;2023-07-22T02:12:28;9.77;;;8.87;;
2111;SDS011;1062;52.538;13.400;2023-07-22T02:14:54;11.43;;;10.43;;
2111;SDS011;1062;52.538;13.400;2023-07-22T02:17:20;8.30;;;7.60;;
2111;SDS011;1062;52.538;13.400;2023-07-22T02:19:46;7.97;;;7.37;;
2111;SDS011;1062;52.538;13.400;2023-07-22T02:22:12;8.73;;;8.00;;
2111;SDS011;1062;52.538;13.400;2023-07-22T02:24:38;8.33;;;7.63;;
2111;SDS011;1062;52.538;13.400;2023-07-22T02:27:04;9.23;;;8.43;;
2111;SDS011;1062;52.538;13.400;2023-07-22T02:29:29;8.70;;;7.80;;
2111;SDS011;1062;52.538;13.400;2023-07-22T02:31:58;7.03;;;6.37;;
2111;SDS011;1062;52.538;13.400;2023-07-22T02:34:23;6.73;;;6.23;;
2111;SDS011;1062;52.538;13.400;2023-07-22T02:36:49;7.40;;;6.80;;
2111;SDS011;1062;52.538;13.400;2023-07-22T02:39:15;8.00;;;6.60;;
2111;SDS011;1062;52.538;13.400;2023-07-22T02:41:40;6.50;;;5.90;;
2111;SDS011;1062;52.538;13.400;2023-07-22T02:44:06;7.37;;;6.77;;
2111;SDS011;1062;52.538;13.400;2023-07-22T02:46:32;6.13;;;5.60;;
2111;SDS011;1062;52.538;13.400;2023-07-22T02:48:58;6.83;;;6.20;;
2111;SDS011;1062;52.538;13.400;2023-07-22T02:51:24;5.87;;;5.30;;
2111;SDS011;1062;52.538;13.400;2023-07-22T02:53:49;6.00;;;5.40;;
2111;SDS011;1062;52.538;13.400;2023-07-22T02:56:15;5.90;;;5.47;;
2111;SDS011;1062;52.538;13.400;2023-07-22T02:58:41;6.30;;;5.70;;
2111;SDS011;1062;52.538;13.400;2023-07-22T03:01:07;7.83;;;7.13;;
2111;SDS011;1062;52.538;13.400;2023-07-22T03:03:33;6.47;;;5.87;;
2111;SDS011;1062;52.538;13.400;2023-07-22T03:06:00;6.10;;;5.60;;
2111;SDS011;1062;52.538;13.400;2023-07-22T03:08:26;5.50;;;5.00;;
2111;SDS011;1062;52.538;13.400;2023-07-22T03:10:52;7.00;;;6.30;;
2111;SDS011;1062;52.538;13.400;2023-07-22T03:13:18;5.63;;;5.13;;
2111;SDS011;1062;52.538;13.400;2023-07-22T03:15:44;6.83;;;6.20;;
2111;SDS011;1062;52.538;13.400;2023-07-22T03:18:10;5.80;;;5.30;;
2111;SDS011;1062;52.538;13.400;2023-07-22T03:20:36;5.77;;;5.33;;
2111;SDS011;1062;52.538;13.400;2023-07-22T03:23:02;7.30;;;6.13;;
2111;SDS011;1062;52.538;13.400;2023-07-22T03:25:28;6.80;;;5.33;;
2111;SDS011;1062;52.538;13.400;2023-07-22T03:27:54;7.43;;;6.10;;
2111;SDS011;1062;52.538;13.400;2023-07-22T03:30:21;5.53;;;5.13;;
2111;SDS011;1062;52.538;13.400;2023-07-22T03:32:47;5.53;;;5.07;;
2111;SDS011;1062;52.538;13.400;2023-07-22T03:35:15;5.33;;;4.90;;
2111;SDS011;1062;52.538;13.400;2023-07-22T03:37:41;5.70;;;5.10;;
2111;SDS011;1062;52.538;13.400;2023-07-22T03:40:08;6.20;;;5.30;;
2111;SDS011;1062;52.538;13.400;2023-07-22T03:42:51;5.67;;;5.17;;
2111;SDS011;1062;52.538;13.400;2023-07-22T03:45:18;7.80;;;7.03;;
2111;SDS011;1062;52.538;13.400;2023-07-22T03:47:45;5.53;;;5.13;;
2111;SDS011;1062;52.538;13.400;2023-07-22T03:50:15;6.37;;;5.73;;
2111;SDS011;1062;52.538;13.400;2023-07-22T03:52:41;5.60;;;5.00;;
2111;SDS011;1062;52.538;13.400;2023-07-22T03:55:07;4.80;;;4.30;;
2111;SDS011;1062;52.538;13.400;2023-07-22T03:57:33;5.27;;;4.83;;
2111;SDS011;1062;52.538;13.400;2023-07-22T03:59:59;5.70;;;5.20;;
2111;SDS011;1062;52.538;13.400;2023-07-22T04:02:25;5.43;;;5.03;;
2111;SDS011;1062;52.538;13.400;2023-07-22T04:04:51;6.80;;;5.50;;
2111;SDS011;1062;52.538;13.400;2023-07-22T04:07:18;6.43;;;4.33;;
2111;SDS011;1062;52.538;13.400;2023-07-22T04:09:44;6.00;;;5.40;;
2111;SDS011;1062;52.538;13.400;2023-07-22T04:12:12;6.50;;;5.90;;
2111;SDS011;1062;52.538;13.400;2023-07-22T04:14:38;5.70;;;5.20;;
2111;SDS011;1062;52.538;13.400;2023-07-22T04:17:04;7.17;;;6.13;;
2111;SDS011;1062;52.538;13.400;2023-07-22T04:19:30;5.30;;;4.90;;
2111;SDS011;1062;52.538;13.400;2023-07-22T04:21:56;5.77;;;5.33;;
2111;SDS011;1062;52.538;13.400;2023-07-22T04:24:21;4.97;;;4.57;;
2111;SDS011;1062;52.538;13.400;2023-07-22T04:26:47;6.13;;;4.83;;
2111;SDS011;1062;52.538;13.400;2023-07-22T04:29:13;6.23;;;4.93;;
2111;SDS011;1062;52.538;13.400;2023-07-22T04:31:39;5.13;;;4.00;;
2111;SDS011;1062;52.538;13.400;2023-07-22T04:34:05;6.10;;;5.57;;
2111;SDS011;1062;52.538;13.400;2023-07-22T04:36:31;4.97;;;4.57;;
2111;SDS011;1062;52.538;13.400;2023-07-22T04:38:57;5.50;;;5.00;;
2111;SDS011;1062;52.538;13.400;2023-07-22T04:41:22;5.60;;;4.10;;
2111;SDS011;1062;52.538;13.400;2023-07-22T04:43:48;7.17;;;5.70;;
2111;SDS011;1062;52.538;13.400;2023-07-22T04:46:15;5.27;;;4.77;;
2111;SDS011;1062;52.538;13.400;2023-07-22T04:48:41;4.83;;;4.30;;
2111;SDS011;1062;52.538;13.400;2023-07-22T04:51:07;4.37;;;3.97;;
2111;SDS011;1062;52.538;13.400;2023-07-22T04:53:32;5.60;;;4.80;;
2111;SDS011;1062;52.538;13.400;2023-07-22T04:55:58;5.23;;;4.73;;
2111;SDS011;1062;52.538;13.400;2023-07-22T04:58:24;5.60;;;3.90;;
2111;SDS011;1062;52.538;13.400;2023-07-22T05:00:50;4.50;;;4.10;;
2111;SDS011;1062;52.538;13.400;2023-07-22T05:03:16;4.00;;;3.70;;
2111;SDS011;1062;52.538;13.400;2023-07-22T05:05:41;4.77;;;3.53;;
2111;SDS011;1062;52.538;13.400;2023-07-22T05:08:07;4.30;;;4.00;;
2111;SDS011;1062;52.538;13.400;2023-07-22T05:10:33;6.50;;;3.27;;
2111;SDS011;1062;52.538;13.400;2023-07-22T05:12:59;4.73;;;3.40;;
2111;SDS011;1062;52.538;13.400;2023-07-22T05:15:24;3.90;;;3.50;;
2111;SDS011;1062;52.538;13.400;2023-07-22T05:17:50;4.00;;;3.30;;
2111;SDS011;1062;52.538;13.400;2023-07-22T05:20:16;5.27;;;2.70;;
2111;SDS011;1062;52.538;13.400;2023-07-22T05:22:42;3.83;;;3.50;;
2111;SDS011;1062;52.538;13.400;2023-07-22T05:25:08;5.60;;;3.70;;
2111;SDS011;1062;52.538;13.400;2023-07-22T05:27:37;3.33;;;3.03;;
2111;SDS011;1062;52.538;13.400;2023-07-22T05:30:03;3.73;;;3.33;;
2111;SDS011;1062;52.538;13.400;2023-07-22T05:32:29;3.93;;;3.53;;
2111;SDS011;1062;52.538;13.400;2023-07-22T05:34:55;5.73;;;4.57;;
2111;SDS011;1062;52.538;13.400;2023-07-22T05:37:21;3.73;;;3.33;;
2111;SDS011;1062;52.538;13.400;2023-07-22T05:39:47;3.43;;;3.07;;
2111;SDS011;1062;52.538;13.400;2023-07-22T05:42:13;4.73;;;4.13;;
2111;SDS011;1062;52.538;13.400;2023-07-22T05:44:38;5.30;;;4.00;;
2111;SDS011;1062;52.538;13.400;2023-07-22T05:47:04;4.60;;;4.03;;
2111;SDS011;1062;52.538;13.400;2023-07-22T05:49:30;4.70;;;3.87;;
2111;SDS011;1062;52.538;13.400;2023-07-22T05:51:55;3.77;;;3.47;;
2111;SDS011;1062;52.538;13.400;2023-07-22T05:54:21;3.73;;;3.40;;
2111;SDS011;1062;52.538;13.400;2023-07-22T05:56:47;6.30;;;4.17;;
2111;SDS011;1062;52.538;13.400;2023-07-22T05:59:12;5.20;;;4.70;;
2111;SDS011;1062;52.538;13.400;2023-07-22T06:01:39;5.20;;;4.07;;
2111;SDS011;1062;52.538;13.400;2023-07-22T06:04:05;6.60;;;4.57;;
2111;SDS011;1062;52.538;13.400;2023-07-22T06:06:31;6.50;;;4.90;;
2111;SDS011;1062;52.538;13.400;2023-07-22T06:08:57;5.80;;;4.03;;
2111;SDS011;1062;52.538;13.400;2023-07-22T06:13:50;4.37;;;3.97;;
2111;SDS011;1062;52.538;13.400;2023-07-22T06:16:16;5.00;;;4.33;;
2111;SDS011;1062;52.538;13.400;2023-07-22T06:18:42;4.70;;;4.20;;
2111;SDS011;1062;52.538;13.400;2023-07-22T06:21:07;5.73;;;3.70;;
2111;SDS011;1062;52.538;13.400;2023-07-22T06:23:33;7.17;;;4.17;;
2111;SDS011;1062;52.538;13.400;2023-07-22T06:25:58;5.30;;;4.30;;
2111;SDS011;1062;52.538;13.400;2023-07-22T06:28:24;5.43;;;4.23;;
2111;SDS011;1062;52.538;13.400;2023-07-22T06:30:49;4.77;;;4.27;;
2111;SDS011;1062;52.538;13.400;2023-07-22T06:33:15;5.33;;;4.33;;
2111;SDS011;1062;52.538;13.400;2023-07-22T06:35:41;4.73;;;4.10;;
2111;SDS011;1062;52.538;13.400;2023-07-22T06:38:07;5.57;;;3.80;;
2111;SDS011;1062;52.538;13.400;2023-07-22T06:40:33;3.83;;;3.13;;
2111;SDS011;1062;52.538;13.400;2023-07-22T06:42:58;4.10;;;3.70;;
2111;SDS011;1062;52.538;13.400;2023-07-22T06:45:24;6.07;;;4.00;;
2111;SDS011;1062;52.538;13.400;2023-07-22T06:47:49;5.63;;;3.97;;
2111;SDS011;1062;52.538;13.400;2023-07-22T06:50:15;4.03;;;3.63;;
2111;SDS011;1062;52.538;13.400;2023-07-22T06:52:40;4.47;;;3.63;;
2111;SDS011;1062;52.538;13.400;2023-07-22T06:55:06;8.40;;;4.10;;
2111;SDS011;1062;52.538;13.400;2023-07-22T06:57:32;4.57;;;4.17;;
2111;SDS011;1062;52.538;13.400;2023-07-22T06:59:58;5.17;;;4.10;;
2111;SDS011;1062;52.538;13.400;2023-07-22T07:02:24;3.53;;;3.23;;
2111;SDS011;1062;52.538;13.400;2023-07-22T07:04:50;6.50;;;3.53;;
2111;SDS011;1062;52.538;13.400;2023-07-22T07:07:16;8.73;;;3.90;;
2111;SDS011;1062;52.538;13.400;2023-07-22T07:09:42;5.27;;;3.00;;
2111;SDS011;1062;52.538;13.400;2023-07-22T07:12:07;4.50;;;3.20;;
2111;SDS011;1062;52.538;13.400;2023-07-22T07:14:34;3.47;;;3.17;;
2111;SDS011;1062;52.538;13.400;2023-07-22T07:17:00;3.10;;;2.43;;
2111;SDS011;1062;52.538;13.400;2023-07-22T07:19:26;3.07;;;2.83;;
2111;SDS011;1062;52.538;13.400;2023-07-22T07:21:52;4.47;;;2.80;;
2111;SDS011;1062;52.538;13.400;2023-07-22T07:24:18;3.00;;;2.70;;
2111;SDS011;1062;52.538;13.400;2023-07-22T07:26:44;2.83;;;2.63;;
2111;SDS011;1062;52.538;13.400;2023-07-22T07:29:10;4.13;;;2.60;;
2111;SDS011;1062;52.538;13.400;2023-07-22T07:31:36;3.77;;;2.60;;
2111;SDS011;1062;52.538;13.400;2023-07-22T07:34:02;4.80;;;3.10;;
2111;SDS011;1062;52.538;13.400;2023-07-22T07:36:28;3.77;;;3.37;;
2111;SDS011;1062;52.538;13.400;2023-07-22T07:38:54;5.13;;;3.30;;
2111;SDS011;1062;52.538;13.400;2023-07-22T07:41:20;4.60;;;3.57;;
2111;SDS011;1062;52.538;13.400;2023-07-22T07:43:46;4.30;;;3.10;;
2111;SDS011;1062;52.538;13.400;2023-07-22T07:46:12;4.13;;;3.23;;
2111;SDS011;1062;52.538;13.400;2023-07-22T07:48:42;2.97;;;2.67;;
2111;SDS011;1062;52.538;13.400;2023-07-22T07:51:08;3.40;;;3.10;;
2111;SDS011;1062;52.538;13.400;2023-07-22T07:53:34;6.60;;;2.87;;
2111;SDS011;1062;52.538;13.400;2023-07-22T07:55:59;5.07;;;3.20;;
2111;SDS011;1062;52.538;13.400;2023-07-22T07:58:25;7.47;;;3.80;;
2111;SDS011;1062;52.538;13.400;2023-07-22T08:00:51;7.10;;;3.50;;
2111;SDS011;1062;52.538;13.400;2023-07-22T08:03:16;4.50;;;2.83;;
2111;SDS011;1062;52.538;13.400;2023-07-22T08:05:42;5.50;;;3.63;;
2111;SDS011;1062;52.538;13.400;2023-07-22T08:08:07;3.77;;;2.60;;
2111;SDS011;1062;52.538;13.400;2023-07-22T08:10:33;7.37;;;3.87;;
2111;SDS011;1062;52.538;13.400;2023-07-22T08:12:58;4.63;;;3.00;;
2111;SDS011;1062;52.538;13.400;2023-07-22T08:15:24;4.20;;;3.00;;
2111;SDS011;1062;52.538;13.400;2023-07-22T08:17:50;4.77;;;3.80;;
2111;SDS011;1062;52.538;13.400;2023-07-22T08:20:15;3.90;;;3.50;;
2111;SDS011;1062;52.538;13.400;2023-07-22T08:22:41;4.10;;;3.10;;
2111;SDS011;1062;52.538;13.400;2023-07-22T08:25:06;4.00;;;3.10;;
2111;SDS011;1062;52.538;13.400;2023-07-22T08:27:32;4.43;;;3.50;;
2111;SDS011;1062;52.538;13.400;2023-07-22T08:29:58;3.67;;;3.37;;
2111;SDS011;1062;52.538;13.400;2023-07-22T08:32:23;4.40;;;4.00;;
2111;SDS011;1062;52.538;13.400;2023-07-22T08:34:49;11.87;;;9.10;;
2111;SDS011;1062;52.538;13.400;2023-07-22T08:37:14;6.03;;;3.70;;
2111;SDS011;1062;52.538;13.400;2023-07-22T08:39:40;4.13;;;3.00;;
2111;SDS011;1062;52.538;13.400;2023-07-22T08:42:05;4.37;;;3.63;;
2111;SDS011;1062;52.538;13.400;2023-07-22T08:44:33;4.90;;;3.90;;
2111;SDS011;1062;52.538;13.400;2023-07-22T08:47:00;3.93;;;3.53;;
2111;SDS011;1062;52.538;13.400;2023-07-22T08:49:31;5.37;;;3.23;;
2111;SDS011;1062;52.538;13.400;2023-07-22T08:51:57;4.50;;;3.37;;
2111;SDS011;1062;52.538;13.400;2023-07-22T08:54:25;4.37;;;3.77;;
2111;SDS011;1062;52.538;13.400;2023-07-22T08:56:51;3.43;;;3.13;;
2111;SDS011;1062;52.538;13.400;2023-07-22T08:59:17;4.60;;;4.20;;
2111;SDS011;1062;52.538;13.400;2023-07-22T09:01:43;3.87;;;3.47;;
2111;SDS011;1062;52.538;13.400;2023-07-22T09:04:10;2.90;;;2.70;;
2111;SDS011;1062;52.538;13.400;2023-07-22T09:06:36;4.03;;;3.63;;
2111;SDS011;1062;52.538;13.400;2023-07-22T09:09:02;3.67;;;3.20;;
2111;SDS011;1062;52.538;13.400;2023-07-22T09:11:33;4.90;;;3.80;;
2111;SDS011;1062;52.538;13.400;2023-07-22T09:14:00;4.10;;;3.70;;
2111;SDS011;1062;52.538;13.400;2023-07-22T09:16:27;6.57;;;3.60;;
2111;SDS011;1062;52.538;13.400;2023-07-22T09:18:55;5.07;;;3.83;;
2111;SDS011;1062;52.538;13.400;2023-07-22T09:21:22;5.33;;;3.67;;
2111;SDS011;1062;52.538;13.400;2023-07-22T09:23:48;6.40;;;3.93;;
2111;SDS011;1062;52.538;13.400;2023-07-22T09:26:15;4.00;;;3.33;;
2111;SDS011;1062;52.538;13.400;2023-07-22T09:28:58;4.70;;;3.00;;
2111;SDS011;1062;52.538;13.400;2023-07-22T09:31:24;3.33;;;2.40;;
2111;SDS011;1062;52.538;13.400;2023-07-22T09:33:50;5.87;;;5.37;;
2111;SDS011;1062;52.538;13.400;2023-07-22T09:36:19;5.57;;;5.00;;
2111;SDS011;1062;52.538;13.400;2023-07-22T09:38:45;5.13;;;3.47;;
2111;SDS011;1062;52.538;13.400;2023-07-22T09:41:10;4.13;;;3.73;;
2111;SDS011;1062;52.538;13.400;2023-07-22T09:43:36;3.33;;;3.03;;
2111;SDS011;1062;52.538;13.400;2023-07-22T09:46:09;3.30;;;3.00;;
2111;SDS011;1062;52.538;13.400;2023-07-22T09:48:42;4.40;;;3.60;;
2111;SDS011;1062;52.538;13.400;2023-07-22T09:51:12;3.30;;;3.00;;
2111;SDS011;1062;52.538;13.400;2023-07-22T09:53:43;3.50;;;2.77;;
2111;SDS011;1062;52.538;13.400;2023-07-22T09:56:13;2.77;;;2.30;;
2111;SDS011;1062;52.538;13.400;2023-07-22T09:58:38;3.20;;;2.90;;
2111;SDS011;1062;52.538;13.400;2023-07-22T10:01:05;2.60;;;2.33;;
2111;SDS011;1062;52.538;13.400;2023-07-22T10:03:32;2.57;;;2.37;;
2111;SDS011;1062;52.538;13.400;2023-07-22T10:06:02;3.90;;;2.67;;
2111;SDS011;1062;52.538;13.400;2023-07-22T10:08:30;7.87;;;2.70;;
2111;SDS011;1062;52.538;13.400;2023-07-22T10:10:59;4.30;;;2.53;;
2111;SDS011;1062;52.538;13.400;2023-07-22T10:13:27;2.90;;;2.60;;
2111;SDS011;1062;52.538;13.400;2023-07-22T10:15:53;3.77;;;2.33;;
2111;SDS011;1062;52.538;13.400;2023-07-22T10:18:19;3.67;;;2.60;;
2111;SDS011;1062;52.538;13.400;2023-07-22T10:20:48;6.27;;;2.70;;
2111;SDS011;1062;52.538;13.400;2023-07-22T10:23:14;3.70;;;2.50;;
2111;SDS011;1062;52.538;13.400;2023-07-22T10:25:40;2.60;;;2.40;;
2111;SDS011;1062;52.538;13.400;2023-07-22T10:28:07;3.90;;;2.53;;
2111;SDS011;1062;52.538;13.400;2023-07-22T10:30:34;3.60;;;2.00;;
2111;SDS011;1062;52.538;13.400;2023-07-22T10:33:00;2.40;;;2.20;;
2111;SDS011;1062;52.538;13.400;2023-07-22T10:40:35;2.70;;;2.33;;
2111;SDS011;1062;52.538;13.400;2023-07-22T10:43:10;3.13;;;2.53;;
2111;SDS011;1062;52.538;13.400;2023-07-22T10:45:42;3.60;;;2.53;;
2111;SDS011;1062;52.538;13.400;2023-07-22T10:48:14;3.13;;;2.50;;
2111;SDS011;1062;52.538;13.400;2023-07-22T10:50:52;2.63;;;2.37;;
2111;SDS011;1062;52.538;13.400;2023-07-22T11:12:01;3.97;;;3.27;;
2111;SDS011;1062;52.538;13.400;2023-07-22T11:16:53;3.73;;;2.77;;
2111;SDS011;1062;52.538;13.400;2023-07-22T11:19:21;3.70;;;3.23;;
2111;SDS011;1062;52.538;13.400;2023-07-22T11:21:49;5.20;;;4.60;;
2111;SDS011;1062;52.538;13.400;2023-07-22T11:24:16;4.40;;;3.60;;
2111;SDS011;1062;52.538;13.400;2023-07-22T11:26:44;5.50;;;4.27;;
2111;SDS011;1062;52.538;13.400;2023-07-22T11:29:11;6.20;;;5.13;;
2111;SDS011;1062;52.538;13.400;2023-07-22T11:31:42;4.37;;;3.97;;
2111;SDS011;1062;52.538;13.400;2023-07-22T11:34:10;4.30;;;3.90;;
2111;SDS011;1062;52.538;13.400;2023-07-22T11:36:37;4.33;;;3.93;;
2111;SDS011;1062;52.538;13.400;2023-07-22T11:41:29;4.90;;;4.07;;
2111;SDS011;1062;52.538;13.400;2023-07-22T11:43:58;5.07;;;3.60;;
2111;SDS011;1062;52.538;13.400;2023-07-22T11:46:25;6.50;;;3.57;;
2111;SDS011;1062;52.538;13.400;2023-07-22T11:48:52;3.83;;;3.10;;
2111;SDS011;1062;52.538;13.400;2023-07-22T11:51:22;4.57;;;3.77;;
2111;SDS011;1062;52.538;13.400;2023-07-22T11:53:49;5.00;;;3.90;;
2111;SDS011;1062;52.538;13.400;2023-07-22T11:56:23;4.00;;;3.60;;
2111;SDS011;1062;52.538;13.400;2023-07-22T11:58:53;4.03;;;3.50;;
2111;SDS011;1062;52.538;13.400;2023-07-22T12:01:21;4.47;;;3.53;;
2111;SDS011;1062;52.538;13.400;2023-07-22T12:03:47;4.53;;;3.53;;
2111;SDS011;1062;52.538;13.400;2023-07-22T12:06:14;7.33;;;3.97;;
2111;SDS011;1062;52.538;13.400;2023-07-22T12:08:47;5.37;;;4.63;;
2111;SDS011;1062;52.538;13.400;2023-07-22T12:11:21;3.60;;;3.30;;
2111;SDS011;1062;52.538;13.400;2023-07-22T12:13:49;6.10;;;3.87;;
2111;SDS011;1062;52.538;13.400;2023-07-22T12:16:37;3.37;;;3.07;;
2111;SDS011;1062;52.538;13.400;2023-07-22T12:19:05;3.97;;;3.60;;
2111;SDS011;1062;52.538;13.400;2023-07-22T12:21:31;4.10;;;3.47;;
2111;SDS011;1062;52.538;13.400;2023-07-22T12:23:57;3.57;;;3.27;;
2111;SDS011;1062;52.538;13.400;2023-07-22T12:26:23;4.20;;;3.53;;
2111;SDS011;1062;52.538;13.400;2023-07-22T12:28:49;7.07;;;3.77;;
2111;SDS011;1062;52.538;13.400;2023-07-22T12:31:15;3.37;;;3.07;;
2111;SDS011;1062;52.538;13.400;2023-07-22T12:33:41;4.93;;;3.40;;
2111;SDS011;1062;52.538;13.400;2023-07-22T12:36:07;5.70;;;3.83;;
2111;SDS011;1062;52.538;13.400;2023-07-22T12:38:33;4.53;;;3.60;;
2111;SDS011;1062;52.538;13.400;2023-07-22T12:40:58;3.40;;;3.10;;
2111;SDS011;1062;52.538;13.400;2023-07-22T12:43:25;4.33;;;3.90;;
2111;SDS011;1062;52.538;13.400;2023-07-22T12:45:50;3.70;;;3.40;;
2111;SDS011;1062;52.538;13.400;2023-07-22T12:48:16;6.20;;;4.60;;
2111;SDS011;1062;52.538;13.400;2023-07-22T12:50:42;3.80;;;3.50;;
2111;SDS011;1062;52.538;13.400;2023-07-22T12:53:08;3.20;;;2.90;;
2111;SDS011;1062;52.538;13.400;2023-07-22T12:55:34;5.03;;;3.43;;
2111;SDS011;1062;52.538;13.400;2023-07-22T12:57:59;4.50;;;4.00;;
2111;SDS011;1062;52.538;13.400;2023-07-22T13:00:25;3.77;;;3.47;;
2111;SDS011;1062;52.538;13.400;2023-07-22T13:02:51;4.63;;;3.77;;
2111;SDS011;1062;52.538;13.400;2023-07-22T13:05:17;6.90;;;4.37;;
2111;SDS011;1062;52.538;13.400;2023-07-22T13:07:43;5.17;;;3.80;;
2111;SDS011;1062;52.538;13.400;2023-07-22T13:10:09;4.07;;;3.30;;
2111;SDS011;1062;52.538;13.400;2023-07-22T13:12:37;4.40;;;3.83;;
2111;SDS011;1062;52.538;13.400;2023-07-22T13:15:03;3.83;;;3.43;;
2111;SDS011;1062;52.538;13.400;2023-07-22T13:17:29;3.83;;;3.47;;
2111;SDS011;1062;52.538;13.400;2023-07-22T13:19:56;4.33;;;3.87;;
2111;SDS011;1062;52.538;13.400;2023-07-22T13:22:21;5.50;;;4.93;;
2111;SDS011;1062;52.538;13.400;2023-07-22T13:24:47;4.03;;;3.70;;
2111;SDS011;1062;52.538;13.400;2023-07-22T13:27:12;6.40;;;3.90;;
2111;SDS011;1062;52.538;13.400;2023-07-22T13:29:38;4.30;;;3.90;;
2111;SDS011;1062;52.538;13.400;2023-07-22T13:32:04;4.43;;;3.87;;
2111;SDS011;1062;52.538;13.400;2023-07-22T13:34:31;4.50;;;4.10;;
2111;SDS011;1062;52.538;13.400;2023-07-22T13:36:57;4.43;;;4.03;;
2111;SDS011;1062;52.538;13.400;2023-07-22T13:39:22;3.97;;;3.57;;
2111;SDS011;1062;52.538;13.400;2023-07-22T13:41:48;4.20;;;3.80;;
2111;SDS011;1062;52.538;13.400;2023-07-22T13:44:15;5.60;;;4.07;;
2111;SDS011;1062;52.538;13.400;2023-07-22T13:46:41;6.43;;;4.23;;
2111;SDS011;1062;52.538;13.400;2023-07-22T13:49:07;3.70;;;3.23;;
2111;SDS011;1062;52.538;13.400;2023-07-22T13:51:33;4.03;;;3.67;;
2111;SDS011;1062;52.538;13.400;2023-07-22T13:53:58;7.03;;;3.23;;
2111;SDS011;1062;52.538;13.400;2023-07-22T13:56:24;4.20;;;3.40;;
2111;SDS011;1062;52.538;13.400;2023-07-22T13:58:49;4.07;;;3.70;;
2111;SDS011;1062;52.538;13.400;2023-07-22T14:01:15;3.83;;;3.43;;
2111;SDS011;1062;52.538;13.400;2023-07-22T14:03:41;5.90;;;4.37;;
2111;SDS011;1062;52.538;13.400;2023-07-22T14:06:07;5.13;;;3.90;;
2111;SDS011;1062;52.538;13.400;2023-07-22T14:08:33;4.03;;;3.73;;
2111;SDS011;1062;52.538;13.400;2023-07-22T14:10:58;4.27;;;3.90;;
2111;SDS011;1062;52.538;13.400;2023-07-22T14:13:24;4.50;;;3.97;;
2111;SDS011;1062;52.538;13.400;2023-07-22T14:15:50;5.30;;;3.27;;
2111;SDS011;1062;52.538;13.400;2023-07-22T14:18:16;4.30;;;3.90;;
2111;SDS011;1062;52.538;13.400;2023-07-22T14:20:43;3.97;;;3.50;;
2111;SDS011;1062;52.538;13.400;2023-07-22T14:23:10;3.77;;;3.00;;
2111;SDS011;1062;52.538;13.400;2023-07-22T14:25:36;3.17;;;2.90;;
2111;SDS011;1062;52.538;13.400;2023-07-22T14:28:01;4.60;;;3.73;;
2111;SDS011;1062;52.538;13.400;2023-07-22T14:30:27;5.87;;;3.50;;
2111;SDS011;1062;52.538;13.400;2023-07-22T14:32:53;4.50;;;3.90;;
2111;SDS011;1062;52.538;13.400;2023-07-22T14:35:18;5.27;;;4.20;;
2111;SDS011;1062;52.538;13.400;2023-07-22T14:37:44;5.10;;;3.97;;
2111;SDS011;1062;52.538;13.400;2023-07-22T14:40:11;4.40;;;3.87;;
2111;SDS011;1062;52.538;13.400;2023-07-22T14:42:37;4.83;;;4.33;;
2111;SDS011;1062;52.538;13.400;2023-07-22T14:45:03;3.90;;;3.40;;
2111;SDS011;1062;52.538;13.400;2023-07-22T14:47:30;4.37;;;3.97;;
2111;SDS011;1062;52.538;13.400;2023-07-22T14:49:55;5.60;;;4.07;;
2111;SDS011;1062;52.538;13.400;2023-07-22T14:52:21;4.20;;;3.50;;
2111;SDS011;1062;52.538;13.400;2023-07-22T14:54:47;3.90;;;3.60;;
2111;SDS011;1062;52.538;13.400;2023-07-22T14:57:14;3.30;;;2.97;;
2111;SDS011;1062;52.538;13.400;2023-07-22T14:59:40;3.57;;;3.27;;
2111;SDS011;1062;52.538;13.400;2023-07-22T15:02:06;3.97;;;3.57;;
2111;SDS011;1062;52.538;13.400;2023-07-22T15:04:32;3.70;;;3.40;;
2111;SDS011;1062;52.538;13.400;2023-07-22T15:06:58;3.77;;;3.40;;
2111;SDS011;1062;52.538;13.400;2023-07-22T15:09:23;3.53;;;3.23;;
2111;SDS011;1062;52.538;13.400;2023-07-22T15:11:49;4.77;;;4.30;;
2111;SDS011;1062;52.538;13.400;2023-07-22T15:14:14;4.53;;;4.10;;
2111;SDS011;1062;52.538;13.400;2023-07-22T15:16:40;4.50;;;3.80;;
2111;SDS011;1062;52.538;13.400;2023-07-22T15:19:06;4.17;;;3.80;;
2111;SDS011;1062;52.538;13.400;2023-07-22T15:21:32;4.40;;;4.00;;
2111;SDS011;1062;52.538;13.400;2023-07-22T15:23:58;4.63;;;4.13;;
2111;SDS011;1062;52.538;13.400;2023-07-22T15:26:23;3.67;;;3.37;;